Latest Weather Observations for Neptune Island

IDS60801

Issued at 5:31 pm CST Wednesday 31 August 2016 (issued every 30 minutes, with the page automatically refreshed every 10 minutes)

About weather observations | Map of weather stations | Latest weather observations for SA | Other Formats
Station Details ID: 018115 Name: NEPTUNE ISLAND Lat: -35.34 Lon: 136.12 Height: 32.0 m
Data from the previous 72 hours. | See also: Recent months at Neptune Island
Date/Time
CST
Temp
°C
App
Temp
°C
Dew
Point
°C
Rel
Hum
%
Delta-T
°C
Wind Press
QNH
hPa
Press
MSL
hPa
Rain since
9am
mm
Dir  Spd
km/h
Gust
km/h
Spd
kts
Gust
kts
31/05:30pm 13.5 10.5 10.7 83 1.5 WSW 17 19 9 10 1017.2 1017.2 0.0
31/05:00pm 13.6 10.1 10.8 83 1.5 WSW 20 24 11 13 1017.1 1017.1 0.0
31/04:30pm 13.7 10.7 10.7 82 1.6 SW 17 20 9 11 1016.9 1016.9 0.0
31/04:00pm 14.3 10.4 10.7 79 1.9 SW 22 26 12 14 1016.6 1016.6 0.0
31/03:30pm 15.4 12.1 10.8 74 2.4 W 19 22 10 12 1016.6 1016.6 0.0
31/03:00pm 15.4 12.1 11.0 75 2.3 W 19 24 10 13 1016.6 1016.6 0.0
31/02:30pm 15.6 12.2 11.2 75 2.4 WSW 20 26 11 14 1016.7 1016.7 0.0
31/02:00pm 15.2 12.5 11.6 79 1.9 WSW 17 20 9 11 1016.7 1016.7 0.0
31/01:30pm 15.1 11.7 11.3 78 2.0 WSW 20 24 11 13 1016.7 1016.7 0.0
31/01:00pm 15.0 10.8 11.2 78 2.0 WSW 24 30 13 16 1016.9 1016.9 0.0
31/12:30pm 15.5 11.4 11.5 77 2.2 WSW 24 30 13 16 1017.1 1017.1 0.0
31/12:00pm 15.3 10.7 11.1 76 2.2 W 26 30 14 16 1017.2 1017.2 0.0
31/11:30am 15.1 9.8 11.1 77 2.1 WSW 30 33 16 18 1017.3 1017.3 0.0
31/11:00am 14.9 9.9 11.1 78 2.0 W 28 33 15 18 1017.4 1017.4 0.0
31/10:30am 14.4 8.6 10.8 79 1.9 WSW 32 35 17 19 1017.3 1017.3 0.0
31/10:00am 14.5 8.8 11.1 80 1.8 W 32 35 17 19 1017.2 1017.2 0.0
31/09:30am 14.1 10.0 11.4 84 1.4 W 24 30 13 16 1017.3 1017.3 0.0
31/09:00am 12.8 8.1 10.5 86 1.2 W 26 33 14 18 1017.2 1017.2 1.2
31/08:30am 12.4 4.7 10.1 86 1.2 W 41 48 22 26 1017.0 1017.0 1.2
31/08:00am 14.0 7.0 11.2 83 1.5 W 39 43 21 23 1016.4 1016.4 1.2
31/07:30am 13.5 7.2 10.9 84 1.4 W 35 41 19 22 1016.1 1016.1 1.2
31/07:00am 13.4 7.5 11.1 86 1.2 WSW 33 39 18 21 1015.6 1015.5 1.2
31/06:30am 13.3 7.0 11.2 87 1.1 WSW 35 41 19 22 1015.1 1015.1 1.0
31/06:00am 13.9 8.0 11.2 84 1.4 W 33 39 18 21 1014.7 1014.7 1.0
31/05:30am 13.5 7.1 10.7 83 1.5 W 35 43 19 23 1014.2 1014.2 1.0
31/05:00am 13.6 6.9 11.1 85 1.3 W 37 43 20 23 1013.9 1013.9 1.0
31/04:30am 13.5 6.7 10.7 83 1.5 W 37 46 20 25 1013.6 1013.6 1.0
31/04:00am 13.1 6.0 10.8 86 1.2 W 39 46 21 25 1013.4 1013.4 1.0
31/03:30am 13.8 6.3 11.0 83 1.5 W 41 48 22 26 1013.3 1013.3 1.0
31/03:00am 13.6 6.0 10.6 82 1.6 W 41 50 22 27 1013.3 1013.3 1.0
31/02:30am 13.7 6.6 11.0 84 1.4 W 39 44 21 24 1013.4 1013.4 1.0
31/02:00am 13.4 6.6 10.6 83 1.5 W 37 43 20 23 1013.4 1013.4 1.0
31/01:30am 13.6 7.3 11.1 85 1.3 W 35 41 19 22 1013.3 1013.3 1.0
31/01:00am 13.6 7.7 11.1 85 1.3 W 33 39 18 21 1013.3 1013.3 1.0
31/12:30am 13.7 6.6 11.0 84 1.4 WSW 39 44 21 24 1012.9 1012.9 1.0
31/12:00am 13.7 7.1 11.4 86 1.2 W 37 43 20 23 1012.7 1012.7 1.0
 
Date/Time
CST
Temp
°C
App
Temp
°C
Dew
Point
°C
Rel
Hum
%
Delta-T
°C
Wind Press
QNH
hPa
Press
MSL
hPa
Rain since
9am
mm
Dir  Spd
km/h
Gust
km/h
Spd
kts
Gust
kts
30/11:30pm 13.7 6.7 11.4 86 1.2 W 39 46 21 25 1012.6 1012.6 1.0
30/11:00pm 13.7 6.8 11.6 87 1.1 W 39 44 21 24 1012.5 1012.5 1.0
30/10:30pm 13.8 7.3 11.8 88 1.1 W 37 44 20 24 1012.6 1012.6 1.0
30/10:00pm 13.2 6.2 11.3 88 1.0 WNW 39 52 21 28 1012.4 1012.4 1.0
30/09:30pm 14.1 7.6 11.8 86 1.2 WNW 37 43 20 23 1012.1 1012.1 0.6
30/09:00pm 13.4 8.1 11.3 87 1.1 W 30 33 16 18 1012.0 1012.0 0.6
30/08:30pm 14.4 8.3 11.7 84 1.5 WNW 35 43 19 23 1011.5 1011.5 0.6
30/08:00pm 14.5 8.0 11.8 84 1.5 WNW 37 46 20 25 1011.3 1011.3 0.6
30/07:30pm 14.4 7.9 11.6 83 1.5 WNW 37 44 20 24 1011.0 1011.0 0.6
30/07:00pm 14.5 7.7 12.0 85 1.4 WNW 39 48 21 26 1010.7 1010.7 0.6
30/06:30pm 14.5 8.5 12.2 86 1.3 WNW 35 41 19 22 1010.2 1010.2 0.6
30/06:00pm 14.5 7.4 12.2 86 1.3 WNW 41 46 22 25 1009.7 1009.7 0.6
30/05:30pm 14.9 9.2 13.1 89 1.0 WNW 35 43 19 23 1009.3 1009.3 0.6
30/05:00pm 14.8 8.8 13.2 90 0.9 NW 37 44 20 24 1008.8 1008.8 0.6
30/04:30pm 14.4 6.4 12.4 88 1.1 NW 46 56 25 30 1008.5 1008.5 0.4
30/04:00pm 15.9 9.7 12.8 82 1.7 NW 37 43 20 23 1008.3 1008.3 0.0
30/03:30pm 16.5 10.2 13.4 82 1.7 NW 39 48 21 26 1008.1 1008.1 0.0
30/03:00pm 16.5 9.3 13.2 81 1.9 NW 43 48 23 26 1008.2 1008.2 0.0
30/02:30pm 16.7 10.6 13.0 79 2.1 NW 37 44 20 24 1008.1 1008.1 0.0
30/02:00pm 17.2 11.8 12.9 76 2.4 NW 33 41 18 22 1008.1 1008.1 0.0
30/01:30pm 18.1 15.3 14.2 78 2.2 NW 22 26 12 14 1008.3 1008.3 0.0
30/01:00pm 17.6 15.1 13.5 77 2.3 NNW 19 24 10 13 1008.4 1008.4 0.0
30/12:30pm 17.5 15.0 14.0 80 2.0 N 20 24 11 13 1008.8 1008.8 0.0
30/12:00pm 17.1 14.8 14.6 85 1.4 N 20 24 11 13 1009.1 1009.1 0.0
30/11:30am 16.5 13.3 14.3 87 1.3 N 24 28 13 15 1009.4 1009.4 0.0
30/11:00am 16.9 13.7 15.2 90 1.0 N 26 32 14 17 1009.5 1009.5 0.0
30/10:30am 15.9 11.2 14.4 91 0.9 NNE 32 37 17 20 1009.3 1009.3 0.0
30/10:00am 15.1 10.0 13.6 91 0.8 NNE 33 39 18 21 1009.3 1009.3 0.0
30/09:30am 14.7 9.1 13.4 92 0.7 NNE 35 41 19 22 1009.4 1009.4 0.0
30/09:00am 14.6 9.0 13.3 92 0.7 NNE 35 39 19 21 1009.4 1009.4 1.6
30/08:30am 14.7 9.5 13.4 92 0.7 NNE 33 39 18 21 1009.3 1009.3 1.6
30/08:00am 14.6 9.4 13.3 92 0.7 NNE 33 39 18 21 1009.1 1009.1 1.6
30/07:30am 14.5 8.9 13.2 92 0.7 NNE 35 41 19 22 1008.9 1008.9 1.6
30/07:00am 14.4 9.3 13.1 92 0.7 NNE 32 41 17 22 1008.9 1008.9 1.6
30/06:30am 14.1 8.9 12.8 92 0.7 NNE 32 37 17 20 1008.5 1008.5 1.6
30/06:00am 14.1 8.9 12.8 92 0.7 NNE 32 35 17 19 1008.6 1008.6 1.6
30/05:30am 14.0 8.8 12.7 92 0.7 NNE 32 35 17 19 1008.5 1008.5 1.6
30/05:00am 14.0 8.8 12.7 92 0.7 NNE 32 35 17 19 1008.4 1008.4 1.6
30/04:30am 14.1 9.2 12.7 91 0.8 NNE 30 35 16 19 1008.6 1008.6 1.6
30/04:00am 14.0 10.3 12.6 91 0.8 N 24 28 13 15 1008.3 1008.3 1.6
30/03:30am 13.9 10.1 12.5 91 0.8 NNE 24 28 13 15 1008.6 1008.6 1.6
30/03:00am 13.9 9.4 12.5 91 0.8 N 28 32 15 17 1008.9 1008.9 1.6
30/02:30am 14.0 10.3 12.6 91 0.8 NNE 24 26 13 14 1009.4 1009.4 1.6
30/02:00am 14.0 11.0 12.6 91 0.8 N 20 24 11 13 1009.7 1009.7 1.4
30/01:30am 13.8 9.5 12.2 90 0.9 NNE 26 30 14 16 1009.6 1009.6 1.2
30/01:00am 13.9 11.6 11.9 88 1.1 N 15 19 8 10 1009.5 1009.5 0.6
30/12:30am 14.1 11.9 12.0 87 1.1 NW 15 20 8 11 1009.7 1009.7 0.4
30/12:00am 14.2 11.0 11.9 86 1.2 WNW 20 26 11 14 1009.9 1009.9 0.2
 
Date/Time
CST
Temp
°C
App
Temp
°C
Dew
Point
°C
Rel
Hum
%
Delta-T
°C
Wind Press
QNH
hPa
Press
MSL
hPa
Rain since
9am
mm
Dir  Spd
km/h
Gust
km/h
Spd
kts
Gust
kts
29/11:30pm 14.5 11.8 11.8 84 1.5 W 17 26 9 14 1009.6 1009.6 0.0
29/11:00pm 14.4 9.6 11.7 84 1.5 WSW 28 33 15 18 1009.3 1009.3 0.0
29/10:30pm 14.6 9.7 12.5 87 1.1 WSW 30 35 16 19 1009.4 1009.4 0.0
29/10:00pm 15.4 13.1 13.1 86 1.3 W 17 20 9 11 1009.4 1009.4 0.0
29/09:30pm 15.5 14.8 13.2 86 1.3 NNW 9 11 5 6 1009.5 1009.5 0.0
29/09:00pm 15.4 14.6 12.9 85 1.4 N 9 9 5 5 1009.1 1009.1 0.0
29/08:30pm 15.4 15.1 12.7 84 1.5 NNE 6 9 3 5 1008.7 1008.7 0.0
29/08:00pm 15.6 14.8 12.9 84 1.5 NNE 9 11 5 6 1008.4 1008.4 0.0
29/07:30pm 15.5 13.6 13.0 85 1.4 NNE 15 19 8 10 1008.4 1008.4 0.0
29/07:00pm 15.2 13.6 12.9 86 1.3 NNE 13 15 7 8 1008.7 1008.7 0.0
29/06:30pm 15.2 12.3 12.9 86 1.3 NNE 20 26 11 14 1008.5 1008.5 0.0
29/06:00pm 15.3 11.9 12.6 84 1.5 N 22 28 12 15 1008.2 1008.2 0.0
29/05:30pm 15.7 12.0 12.6 82 1.7 NNE 24 28 13 15 1007.9 1007.9 0.0
29/05:00pm 15.8 11.2 12.4 80 1.9 NNE 28 32 15 17 1007.4 1007.4 0.0
29/04:30pm 15.9 12.1 12.3 79 2.0 NE 24 33 13 18 1007.2 1007.2 0.0
29/04:00pm 16.0 11.7 12.2 78 2.1 NE 26 33 14 18 1007.3 1007.3 0.0
29/03:30pm 16.4 11.5 12.4 77 2.2 NNE 30 35 16 19 1007.4 1007.4 0.0
29/03:00pm 16.2 11.5 12.0 76 2.3 NE 28 37 15 20 1007.0 1007.0 0.0
29/02:30pm 16.4 10.9 12.0 75 2.4 NNE 32 39 17 21 1007.1 1007.1 0.0
29/02:00pm 16.7 11.1 12.0 74 2.6 NE 33 41 18 22 1007.2 1007.2 0.0
29/01:30pm 16.3 10.5 11.5 73 2.6 NE 33 48 18 26 1007.4 1007.4 0.0
29/01:00pm 16.6 9.7 11.5 72 2.8 NE 39 50 21 27 1007.6 1007.6 0.0
29/12:30pm 16.6 8.9 11.5 72 2.8 NNE 43 54 23 29 1007.9 1007.9 0.0
29/12:00pm 16.3 8.0 11.5 73 2.6 NNE 46 57 25 31 1008.1 1008.1 0.0
29/11:30am 15.7 7.4 11.3 75 2.4 NNE 46 59 25 32 1008.3 1008.3 0.0
29/11:00am 15.9 7.5 11.1 73 2.6 NNE 46 57 25 31 1008.5 1008.5 0.0
29/10:30am 15.7 8.3 11.1 74 2.5 NE 41 54 22 29 1008.6 1008.6 0.0
29/10:00am 16.2 7.4 10.9 71 2.8 NNE 48 61 26 33 1008.9 1008.9 0.0
29/09:30am 15.9 7.8 10.9 72 2.7 NE 44 63 24 34 1009.2 1009.2 0.0
29/09:14am 15.6 7.6 10.6 72 2.6 NE 43 63 23 34 1009.2 1009.2 0.0
29/09:00am 15.8 9.0 10.8 72 2.7 NE 37 50 20 27 1009.3 1009.3 1.2
29/08:30am 15.7 9.4 11.1 74 2.5 NE 35 48 19 26 1009.5 1009.5 1.2
29/08:00am 15.0 8.3 11.0 77 2.1 NE 37 56 20 30 1009.4 1009.4 1.2
29/07:52am 14.7 8.0 10.9 78 2.0 NE 37 56 20 30 1009.2 1009.2 1.2
29/07:30am 14.6 8.3 11.2 80 1.8 NE 35 48 19 26 1009.4 1009.4 1.2
29/07:00am 14.6 8.3 11.2 80 1.8 NE 35 50 19 27 1009.4 1009.4 1.2
29/06:30am 14.4 7.6 10.8 79 1.9 NE 37 50 20 27 1009.4 1009.4 0.8
29/06:00am 15.0 8.4 11.2 78 2.0 NE 37 52 20 28 1009.0 1009.0 0.6
29/05:35am 15.0 8.4 11.2 78 2.0 NE 37 56 20 30 1009.1 1009.1 0.6
29/05:30am 14.9 7.9 11.3 79 1.9 NE 39 56 21 30 1009.1 1009.1 0.6
29/05:00am 15.1 8.1 11.3 78 2.0 NE 39 56 21 30 1009.0 1009.0 0.6
29/04:30am 14.7 8.5 11.3 80 1.8 NE 35 44 19 24 1009.3 1009.3 0.4
29/04:00am 14.5 7.1 11.3 81 1.7 NE 41 52 22 28 1008.8 1008.8 0.4
29/03:30am 14.5 6.7 11.3 81 1.7 NE 43 57 23 31 1008.8 1008.8 0.4
29/03:21am 14.5 7.5 11.3 81 1.7 NE 39 57 21 31 1009.0 1009.0 0.4
29/03:00am 14.7 7.8 11.5 81 1.7 NE 39 54 21 29 1009.0 1009.0 0.4
29/02:30am 14.9 8.8 11.9 82 1.6 NE 35 48 19 26 1009.3 1009.3 0.4
29/02:00am 15.2 10.1 11.8 80 1.8 NE 30 43 16 23 1009.8 1009.8 0.4
29/01:30am 15.5 9.1 12.1 80 1.9 NNE 37 52 20 28 1010.3 1010.3 0.4
29/01:00am 15.4 8.6 12.0 80 1.8 NNE 39 46 21 25 1010.3 1010.3 0.4
29/12:30am 15.3 9.9 12.2 82 1.7 NE 32 43 17 23 1010.6 1010.6 0.4
29/12:00am 15.0 10.8 12.3 84 1.5 NE 26 35 14 19 1010.8 1010.8 0.4
 
Date/Time
CST
Temp
°C
App
Temp
°C
Dew
Point
°C
Rel
Hum
%
Delta-T
°C
Wind Press
QNH
hPa
Press
MSL
hPa
Rain since
9am
mm
Dir  Spd
km/h
Gust
km/h
Spd
kts
Gust
kts
28/11:30pm 15.1 10.9 12.4 84 1.5 NE 26 33 14 18 1010.7 1010.7 0.4
28/11:00pm 15.0 11.5 12.1 83 1.6 NE 22 32 12 17 1010.9 1010.9 0.4
28/10:30pm 15.1 8.7 12.1 82 1.6 NNE 37 46 20 25 1010.9 1010.9 0.2
28/10:00pm 15.4 10.8 12.2 81 1.7 NNE 28 32 15 17 1010.8 1010.8 0.0
28/09:30pm 15.8 10.8 12.2 79 2.0 N 30 33 16 18 1010.7 1010.7 0.0
28/09:00pm 15.8 8.6 12.0 78 2.1 NNE 41 48 22 26 1010.2 1010.2 0.0
28/08:30pm 15.9 8.4 12.1 78 2.1 NNE 43 50 23 27 1009.3 1009.3 0.0
28/08:00pm 15.8 8.6 11.8 77 2.2 NNE 41 48 22 26 1009.2 1009.2 0.0
28/07:30pm 15.9 8.6 11.7 76 2.3 NNE 41 50 22 27 1009.1 1009.1 0.0
28/07:00pm 16.3 7.9 11.2 72 2.7 NNE 46 57 25 31 1008.8 1008.8 0.0
28/06:30pm 16.0 8.1 11.4 74 2.5 NNE 44 54 24 29 1008.4 1008.4 0.0
28/06:00pm 16.0 7.6 11.0 72 2.7 NNE 46 59 25 32 1008.0 1008.0 0.0
28/05:53pm 16.1 9.0 10.8 71 2.8 NE 39 59 21 32 1007.8 1007.8 0.0

Other Formats:

Comma delimited format used in spreadsheet applications
http://www.bom.gov.au/fwo/IDS60801/IDS60801.94804.axf

JavaScript Object Notation format (JSON) in row-major order
http://www.bom.gov.au/fwo/IDS60801/IDS60801.94804.json